createdAt,value
2023-09-01T00:05:01.141Z,1009
2023-09-01T00:17:01.136Z,1009
2023-09-01T00:29:01.226Z,1009
2023-09-01T00:41:01.207Z,1009
2023-09-01T00:53:01.171Z,1009
2023-09-01T01:05:01.139Z,1009
2023-09-01T01:17:01.250Z,1009
2023-09-01T01:29:01.294Z,1009
2023-09-01T01:41:01.241Z,1009
2023-09-01T01:53:01.163Z,1009
2023-09-01T02:05:01.356Z,1009
2023-09-01T02:17:01.279Z,1009
2023-09-01T02:29:01.308Z,1009
2023-09-01T02:41:01.407Z,1009
2023-09-01T02:53:01.330Z,1009
2023-09-01T03:05:01.355Z,1009
2023-09-01T03:17:01.240Z,1009
2023-09-01T03:29:02.471Z,1009
2023-09-01T03:41:01.362Z,1009
2023-09-01T03:53:01.428Z,1009
2023-09-01T04:05:01.272Z,1009
2023-09-01T04:17:01.463Z,1009
2023-09-01T04:29:01.385Z,1009
2023-09-01T04:41:01.389Z,1009
2023-09-01T04:53:01.505Z,1009
2023-09-01T05:05:01.487Z,1009
2023-09-01T05:17:01.459Z,1009
2023-09-01T05:29:01.390Z,1009
2023-09-01T05:41:01.555Z,1009
2023-09-01T05:53:02.946Z,1009
2023-09-01T06:05:01.443Z,1010
2023-09-01T06:17:01.440Z,1010
2023-09-01T06:29:01.602Z,1010
2023-09-01T06:41:01.587Z,1010
2023-09-01T06:53:01.468Z,1010
2023-09-01T07:05:01.656Z,1010
2023-09-01T07:17:01.659Z,1011
2023-09-01T07:29:01.564Z,1011
2023-09-01T07:41:01.518Z,1011
2023-09-01T07:53:01.738Z,1011
2023-09-01T08:05:01.786Z,1012
2023-09-01T08:17:01.732Z,1012
2023-09-01T08:29:01.756Z,1012
2023-09-01T08:41:01.768Z,1012
2023-09-01T08:53:01.682Z,1013
2023-09-01T09:05:01.690Z,1013
2023-09-01T09:17:01.973Z,1013
2023-09-01T09:29:01.717Z,1013
2023-09-01T09:41:01.836Z,1013
2023-09-01T09:53:01.881Z,1014
2023-09-01T10:05:01.755Z,1013
2023-09-01T10:17:01.743Z,1013
2023-09-01T10:29:01.801Z,1013
2023-09-01T10:41:01.794Z,1013
2023-09-01T10:53:01.754Z,1014
2023-09-01T11:05:01.918Z,1014
2023-09-01T11:17:01.778Z,1015
2023-09-01T11:29:01.926Z,1015
2023-09-01T11:41:01.911Z,1015
2023-09-01T11:53:01.887Z,1015
2023-09-01T12:05:01.990Z,1015
2023-09-01T12:17:02.060Z,1015
2023-09-01T12:29:02.612Z,1016
2023-09-01T12:41:01.835Z,1016
2023-09-01T12:53:01.966Z,1016
2023-09-01T13:05:01.972Z,1016
2023-09-01T13:17:01.925Z,1018
2023-09-01T13:29:01.863Z,1018
2023-09-01T13:41:02.024Z,1018
2023-09-01T13:53:02.053Z,1018
2023-09-01T14:05:01.906Z,1020
2023-09-01T14:17:02.164Z,1020
2023-09-01T14:29:02.065Z,1020
2023-09-01T14:41:02.089Z,1020
2023-09-01T14:53:01.945Z,1020
2023-09-01T15:05:02.131Z,1019
2023-09-01T15:17:02.111Z,1018
2023-09-01T15:29:02.180Z,1018
2023-09-01T15:41:02.060Z,1017
2023-09-01T15:53:02.186Z,1017
2023-09-01T16:05:02.178Z,1017
2023-09-01T16:17:02.071Z,1017
2023-09-01T16:29:02.253Z,1016
2023-09-01T16:41:02.166Z,1016
2023-09-01T16:53:02.104Z,1016
2023-09-01T17:05:02.289Z,1016
2023-09-01T17:17:02.177Z,1016
2023-09-01T17:29:02.294Z,1016
2023-09-01T17:41:02.285Z,1016
2023-09-01T17:53:02.289Z,1016
2023-09-01T18:05:02.198Z,1016
2023-09-01T18:17:02.185Z,1017
2023-09-01T18:29:02.480Z,1017
2023-09-01T18:41:02.602Z,1017
2023-09-01T18:53:02.244Z,1017
2023-09-01T19:05:02.213Z,1017
2023-09-01T19:17:02.386Z,1017
2023-09-01T19:29:02.568Z,1017
2023-09-01T19:41:02.301Z,1017
2023-09-01T19:53:02.252Z,1017
2023-09-01T20:05:02.407Z,1017
2023-09-01T20:17:02.397Z,1017
2023-09-01T20:29:02.292Z,1017
2023-09-01T20:41:02.493Z,1017
2023-09-01T20:53:02.447Z,1017
2023-09-01T21:05:02.428Z,1017
2023-09-01T21:17:02.403Z,1018
2023-09-01T21:29:02.511Z,1018
2023-09-01T21:41:02.462Z,1018
2023-09-01T21:53:02.466Z,1018
2023-09-01T22:05:02.368Z,1018
2023-09-01T22:17:02.590Z,1018
2023-09-01T22:29:02.510Z,1018
2023-09-01T22:41:02.528Z,1019
2023-09-01T22:53:02.595Z,1019
2023-09-01T23:05:02.619Z,1019
2023-09-01T23:17:02.512Z,1019
2023-09-01T23:29:02.494Z,1018
2023-09-01T23:41:02.620Z,1019
2023-09-01T23:53:02.697Z,1019
